Time;durP1;ratioP1;P1;durP2;ratioP2;P2;SDS_P1;SDS_P2;PMS_P1;PMS_P2;Temp;Humidity;BMP_temperature;BMP_pressure;BME280_temperature;BME280_humidity;BME280_pressure;Samples;Min_cycle;Max_cycle;Signal;HPM_P1;HPM_P2
2022/05/08 00:02:13;;;;;;;32.72;21.83;;;;;;;9.46;97.87;102352.16;10495098;28;20120;-75
2022/05/08 00:07:13;;;;;;;26.67;19.65;;;;;;;9.40;97.54;102347.38;10495691;28;20449;-75
2022/05/08 00:12:15;;;;;;;22.42;14.27;;;;;;;9.42;97.70;102356.25;10453616;28;20119;-75
2022/05/08 00:17:15;;;;;;;19.25;15.00;;;;;;;9.59;96.70;102362.72;10419403;28;20120;-75
2022/05/08 00:22:15;;;;;;;26.80;15.43;;;;;;;9.86;95.57;102357.75;10453557;28;20178;-76
2022/05/08 00:27:16;;;;;;;30.15;20.42;;;;;;;10.10;94.50;102356.06;10452842;28;20071;-76
2022/05/08 00:32:18;;;;;;;35.00;23.27;;;;;;;10.39;92.00;102364.19;10418117;28;20496;-76
2022/05/08 00:37:18;;;;;;;38.13;20.40;;;;;;;10.48;90.45;102356.16;10450967;28;20091;-76
2022/05/08 00:42:19;;;;;;;15.40;8.10;;;;;;;10.45;89.57;102350.69;10418205;28;20060;-76
2022/05/08 00:47:19;;;;;;;12.27;6.28;;;;;;;10.37;89.60;102355.31;10452103;28;20053;-75
2022/05/08 00:52:20;;;;;;;12.90;7.30;;;;;;;10.43;88.88;102350.56;10452794;28;20080;-76
2022/05/08 00:57:21;;;;;;;20.38;8.13;;;;;;;10.29;88.29;102358.31;10433274;28;20080;-76
2022/05/08 01:02:21;;;;;;;14.07;7.45;;;;;;;9.93;88.29;102360.03;10451735;28;20481;-75
2022/05/08 01:07:22;;;;;;;16.40;7.82;;;;;;;9.75;89.48;102369.13;10452770;28;20041;-75
2022/05/08 01:12:22;;;;;;;16.67;7.45;;;;;;;9.67;89.65;102372.06;10451184;28;20088;-75
2022/05/08 01:17:23;;;;;;;14.05;8.77;;;;;;;9.68;89.44;102373.88;10434419;28;20072;-75
2022/05/08 01:22:23;;;;;;;15.77;10.50;;;;;;;9.62;90.02;102383.88;10433541;28;20515;-75
2022/05/08 01:27:24;;;;;;;16.80;11.05;;;;;;;9.52;89.93;102373.53;10452227;28;20095;-75
2022/05/08 01:32:24;;;;;;;19.60;12.82;;;;;;;9.45;91.14;102376.47;10444534;28;20057;-75
2022/05/08 01:37:25;;;;;;;25.35;14.20;;;;;;;9.44;90.70;102385.09;10451932;28;20063;-75
2022/05/08 01:42:27;;;;;;;25.58;18.15;;;;;;;9.33;91.40;102384.28;10451504;28;20090;-76
2022/05/08 01:52:46;;;;;;;22.80;14.30;;;;;;;9.09;91.74;102378.97;10452991;28;20396;-75
2022/05/08 01:57:47;;;;;;;21.58;15.40;;;;;;;9.02;92.16;102381.91;10449981;28;20036;-76
2022/05/08 02:02:48;;;;;;;20.63;14.30;;;;;;;8.95;93.42;102384.03;10457837;28;20064;-75
2022/05/08 02:07:49;;;;;;;23.20;16.65;;;;;;;8.98;93.25;102388.56;10440385;28;20033;-75
2022/05/08 02:12:49;;;;;;;30.17;18.08;;;;;;;9.02;92.79;102390.63;10457867;28;20045;-75
2022/05/08 02:17:50;;;;;;;33.60;23.42;;;;;;;9.05;92.76;102396.09;10457195;28;20127;-75
2022/05/08 02:22:51;;;;;;;38.08;27.60;;;;;;;9.09;93.30;102395.53;10459024;28;20025;-75
2022/05/08 02:27:52;;;;;;;43.97;27.90;;;;;;;8.98;92.81;102392.91;10450750;28;20280;-76
2022/05/08 02:32:55;;;;;;;35.45;21.58;;;;;;;8.86;92.82;102393.75;10452638;28;20060;-75
2022/05/08 02:37:56;;;;;;;36.05;21.52;;;;;;;8.91;94.40;102404.53;10441426;28;20037;-76
2022/05/08 02:42:56;;;;;;;33.50;23.23;;;;;;;9.05;95.27;102413.47;10424316;28;20378;-75
2022/05/08 02:47:57;;;;;;;37.75;26.98;;;;;;;9.24;95.54;102407.97;10446059;28;20021;-75
2022/05/08 02:52:57;;;;;;;49.03;32.70;;;;;;;9.43;95.58;102409.41;10441903;28;20025;-75
2022/05/08 03:03:17;;;;;;;28.40;17.00;;;;;;;9.62;93.19;102412.63;10440382;28;20037;-75
2022/05/08 03:08:19;;;;;;;26.23;17.10;;;;;;;9.68;92.35;102413.09;10447498;28;20057;-76
2022/05/08 03:13:20;;;;;;;24.03;17.23;;;;;;;9.63;91.78;102409.22;10477753;28;20047;-76
2022/05/08 03:18:20;;;;;;;23.80;14.63;;;;;;;9.53;90.09;102412.84;10496102;28;20036;-76
2022/05/08 03:23:21;;;;;;;25.38;15.23;;;;;;;9.16;89.43;102415.22;10494805;28;20028;-75
2022/05/08 03:28:21;;;;;;;29.75;16.30;;;;;;;8.95;90.82;102410.16;10494981;28;20098;-76
2022/05/08 03:33:22;;;;;;;25.65;16.77;;;;;;;8.63;91.23;102410.19;10493115;28;20028;-76
2022/05/08 03:38:23;;;;;;;33.50;18.70;;;;;;;8.52;91.88;102411.94;10474525;28;20048;-76
2022/05/08 03:43:24;;;;;;;30.55;18.85;;;;;;;8.36;91.94;102414.94;10491492;28;20120;-75
2022/05/08 03:48:24;;;;;;;39.05;19.55;;;;;;;8.24;93.20;102420.09;10493013;28;20118;-74
2022/05/08 03:53:25;;;;;;;25.50;17.88;;;;;;;8.31;93.13;102426.69;10494928;28;20091;-75
2022/05/08 03:58:26;;;;;;;25.08;17.00;;;;;;;8.29;93.43;102426.59;10492520;28;20074;-74
2022/05/08 04:03:26;;;;;;;25.00;17.83;;;;;;;8.56;92.83;102429.66;10492638;28;20033;-76
2022/05/08 04:08:27;;;;;;;30.35;17.63;;;;;;;8.76;91.84;102432.97;10493771;28;20507;-75
2022/05/08 04:13:27;;;;;;;21.83;14.40;;;;;;;8.82;90.96;102430.84;10487834;28;20119;-76
2022/05/08 04:18:28;;;;;;;24.25;15.52;;;;;;;8.89;90.42;102441.00;10488279;28;20370;-75
2022/05/08 04:28:47;;;;;;;26.08;14.35;;;;;;;8.92;90.05;102436.00;10470795;28;20029;-75
2022/05/08 04:33:48;;;;;;;21.00;14.70;;;;;;;9.06;89.19;102428.38;10466017;28;20503;-76
2022/05/08 04:38:48;;;;;;;28.23;15.55;;;;;;;9.05;89.02;102440.50;10477528;28;20032;-77
2022/05/08 04:43:49;;;;;;;24.52;14.95;;;;;;;9.16;88.46;102441.34;10492879;28;20028;-76
2022/05/08 04:48:49;;;;;;;25.10;17.40;;;;;;;9.10;88.87;102447.00;10494180;28;20099;-77
2022/05/08 04:53:50;;;;;;;26.00;16.33;;;;;;;9.17;88.47;102447.47;10491226;28;20124;-75
2022/05/08 04:58:51;;;;;;;23.13;14.35;;;;;;;9.20;88.65;102458.16;10493405;28;20111;-74
2022/05/08 05:03:52;;;;;;;28.15;15.68;;;;;;;9.28;87.45;102467.53;10472346;28;20032;-75
2022/05/08 05:08:52;;;;;;;31.58;17.83;;;;;;;9.25;87.21;102467.28;10436877;28;20116;-75
2022/05/08 05:13:53;;;;;;;30.25;15.88;;;;;;;9.25;87.37;102470.81;10418337;28;20032;-75
2022/05/08 05:18:53;;;;;;;22.70;13.05;;;;;;;9.25;87.70;102478.66;10433477;28;20073;-74
2022/05/08 05:23:54;;;;;;;21.45;14.73;;;;;;;9.37;86.49;102476.06;10376498;28;20469;-74
2022/05/08 05:28:54;;;;;;;30.83;15.65;;;;;;;9.46;86.57;102481.13;10417389;28;20037;-74
2022/05/08 05:33:55;;;;;;;26.75;15.25;;;;;;;9.53;85.93;102487.72;10450397;28;20025;-74
2022/05/08 05:38:55;;;;;;;23.90;15.00;;;;;;;9.61;85.58;102491.84;10441360;28;20129;-74
2022/05/08 05:43:57;;;;;;;27.33;16.30;;;;;;;9.64;85.23;102497.31;10456889;28;20061;-74
2022/05/08 05:48:57;;;;;;;26.33;16.15;;;;;;;9.75;84.75;102500.78;10441297;28;20044;-74
2022/05/08 05:53:58;;;;;;;20.73;15.00;;;;;;;10.06;84.47;102497.91;10440812;28;20020;-74
2022/05/08 05:58:58;;;;;;;21.50;15.77;;;;;;;10.70;81.40;102508.75;10442978;28;20511;-75
2022/05/08 06:03:59;;;;;;;23.90;13.82;;;;;;;11.21;79.58;102510.59;10440023;28;20156;-74
2022/05/08 06:08:59;;;;;;;23.20;12.95;;;;;;;11.52;77.22;102516.31;10458165;28;20076;-74
2022/05/08 06:14:00;;;;;;;24.38;15.45;;;;;;;11.68;75.92;102527.88;10424451;28;20047;-75
2022/05/08 06:19:00;;;;;;;39.45;17.40;;;;;;;11.56;75.64;102533.16;10455011;28;20463;-75
2022/05/08 06:24:01;;;;;;;22.13;13.98;;;;;;;11.51;76.53;102534.53;10454506;28;20083;-74
2022/05/08 06:29:01;;;;;;;21.60;14.05;;;;;;;11.69;74.43;102527.97;10419110;28;20029;-75
2022/05/08 06:34:02;;;;;;;23.25;13.73;;;;;;;11.37;75.24;102536.19;10400828;28;20043;-74
2022/05/08 06:39:03;;;;;;;22.65;13.48;;;;;;;11.11;76.62;102543.09;10399602;28;20159;-74
2022/05/08 06:44:03;;;;;;;26.77;13.10;;;;;;;10.92;76.00;102551.31;10431364;28;20057;-74
2022/05/08 06:49:05;;;;;;;23.70;14.18;;;;;;;10.99;76.04;102549.28;10450846;28;20047;-74
2022/05/08 06:54:05;;;;;;;18.17;11.75;;;;;;;13.63;70.09;102550.25;10447712;28;20048;-74
2022/05/08 07:04:25;;;;;;;18.35;10.50;;;;;;;17.68;53.53;102547.16;10454958;28;20108;-75
2022/05/08 07:09:25;;;;;;;16.83;8.35;;;;;;;17.70;53.01;102551.69;10440810;28;20059;-75
2022/05/08 07:14:26;;;;;;;17.95;9.93;;;;;;;18.77;50.43;102542.97;10407995;28;20045;-75
2022/05/08 07:19:26;;;;;;;13.43;8.03;;;;;;;19.30;48.22;102541.53;10419353;28;20370;-75
2022/05/08 07:24:27;;;;;;;16.37;8.67;;;;;;;20.54;43.80;102540.63;10419490;28;20044;-75
2022/05/08 07:29:27;;;;;;;15.40;8.43;;;;;;;20.29;43.63;102554.81;10430456;28;20408;-75
2022/05/08 07:39:50;;;;;;;;;;;;;;;17.58;48.35;102561.72;10446739;28;20052;-74
2022/05/08 07:44:51;;;;;;;14.63;6.70;;;;;;;16.91;48.35;102569.13;10456147;28;19916;-75
2022/05/08 07:49:51;;;;;;;18.05;7.22;;;;;;;16.08;51.34;102576.47;10422285;28;20531;-75
2022/05/08 07:54:52;;;;;;;14.50;5.22;;;;;;;15.58;51.93;102579.09;10452909;28;20097;-74
2022/05/08 07:59:52;;;;;;;13.20;5.30;;;;;;;15.74;50.44;102577.28;10419659;28;20162;-74
2022/05/08 08:04:53;;;;;;;16.50;6.38;;;;;;;15.26;52.35;102586.13;10435830;28;20139;-74
2022/05/08 08:09:54;;;;;;;20.45;8.05;;;;;;;17.49;46.70;102582.47;10451656;28;20076;-75
2022/05/08 08:14:54;;;;;;;18.80;4.80;;;;;;;18.11;46.14;102599.41;10436895;28;20064;-75
2022/05/08 08:19:55;;;;;;;10.65;5.57;;;;;;;17.19;46.03;102594.31;10443921;28;20166;-75
2022/05/08 08:24:56;;;;;;;21.80;6.22;;;;;;;16.21;48.75;102599.13;10455473;28;20512;-75
2022/05/08 08:29:56;;;;;;;22.30;5.43;;;;;;;16.28;49.29;102593.31;10433129;28;20045;-75
2022/05/08 08:34:57;;;;;;;15.43;4.32;;;;;;;17.24;47.79;102584.84;10421044;28;20139;-74
2022/05/08 08:39:58;;;;;;;15.38;6.13;;;;;;;20.68;39.31;102589.84;10454061;28;20036;-75
2022/05/08 08:50:23;;;;;;;13.53;5.07;;;;;;;23.98;34.17;102577.13;10427468;28;20057;-75
2022/05/08 08:55:27;;;;;;;13.73;4.72;;;;;;;24.01;34.12;102580.78;10431908;28;20033;-75
2022/05/08 09:00:27;;;;;;;14.80;4.40;;;;;;;23.82;33.15;102578.56;10422390;28;20037;-75
2022/05/08 09:05:28;;;;;;;9.20;4.40;;;;;;;24.38;32.67;102579.63;10395584;28;20037;-75
2022/05/08 09:10:35;;;;;;;14.57;5.27;;;;;;;24.19;33.62;102581.97;10400747;28;20069;-74
2022/05/08 09:15:37;;;;;;;19.92;5.47;;;;;;;24.82;29.81;102575.94;10460059;28;20052;-75
2022/05/08 09:20:42;;;;;;;19.23;6.78;;;;;;;24.97;31.78;102583.28;10461038;28;20480;-75
2022/05/08 09:25:55;;;;;;;18.23;4.75;;;;;;;25.02;31.12;102584.25;10444104;28;20036;-74
2022/05/08 09:31:11;;;;;;;15.85;4.40;;;;;;;24.96;30.60;102581.47;10445627;28;20056;-75
2022/05/08 09:36:17;;;;;;;10.73;4.50;;;;;;;24.51;31.05;102578.09;10493573;28;20042;-75
2022/05/08 09:41:22;;;;;;;24.83;6.43;;;;;;;24.33;31.27;102585.81;10473381;28;20484;-76
2022/05/08 09:46:23;;;;;;;12.40;4.38;;;;;;;25.28;31.03;102578.34;10484842;28;20036;-76
2022/05/08 09:51:24;;;;;;;11.88;4.40;;;;;;;25.19;30.67;102573.78;10460027;28;20106;-77
2022/05/08 09:56:25;;;;;;;16.87;5.13;;;;;;;24.96;30.53;102568.09;10439957;28;20441;-76
2022/05/08 10:01:25;;;;;;;10.80;4.20;;;;;;;25.58;30.51;102568.94;10468623;28;20021;-77
2022/05/08 10:06:28;;;;;;;16.10;6.50;;;;;;;25.44;30.77;102556.22;10481733;28;20029;-77
2022/05/08 10:17:00;;;;;;;17.75;6.18;;;;;;;25.31;31.36;102554.28;10417339;28;20123;-78
2022/05/08 10:22:02;;;;;;;14.15;5.85;;;;;;;25.27;31.60;102563.16;10439423;28;20025;-78
2022/05/08 10:27:17;;;;;;;8.73;4.13;;;;;;;25.62;30.24;102566.31;10459968;28;20037;-78
2022/05/08 10:37:30;;;;;;;11.80;5.18;;;;;;;26.46;27.71;102553.75;10459494;28;20048;-79
2022/05/08 10:42:35;;;;;;;18.10;5.07;;;;;;;26.55;29.55;102555.59;10399758;28;20060;-82
2022/05/08 10:47:40;;;;;;;9.48;3.90;;;;;;;26.94;28.46;102551.41;10418116;28;20040;-81
2022/05/08 10:52:44;;;;;;;16.33;5.18;;;;;;;27.22;27.82;102545.31;10418248;28;20029;-81
2022/05/08 10:57:46;;;;;;;14.95;6.13;;;;;;;27.22;28.56;102538.13;10416956;28;20025;-82
2022/05/08 11:02:47;;;;;;;;;;;;;;;26.75;28.66;102533.34;10421689;28;20044;-82
2022/05/08 11:08:01;;;;;;;14.95;5.38;;;;;;;26.46;28.79;102534.06;10438869;28;19916;-91
2022/05/08 11:13:05;;;;;;;16.90;4.03;;;;;;;26.20;29.56;102535.66;10489600;28;20099;-82
2022/05/08 11:18:07;;;;;;;12.25;4.45;;;;;;;25.35;28.99;102537.34;10499149;28;20071;-84
2022/05/08 11:23:10;;;;;;;11.93;4.22;;;;;;;25.84;29.51;102530.78;10497136;28;20085;-82
2022/05/08 11:28:14;;;;;;;15.10;4.40;;;;;;;26.37;27.43;102530.41;10495502;28;20170;-81
2022/05/08 11:38:50;;;;;;;9.68;3.38;;;;;;;26.07;27.54;102518.50;10496599;28;20514;-79
2022/05/08 11:44:13;;;;;;;15.80;5.78;;;;;;;26.27;30.25;102516.91;10479536;28;20039;-83
2022/05/08 11:49:39;;;;;;;11.50;3.88;;;;;;;26.28;28.44;102514.22;10491458;28;20042;-82
2022/05/08 11:54:40;;;;;;;14.07;5.20;;;;;;;26.20;31.21;102511.50;10476472;28;20044;-80
2022/05/08 11:59:41;;;;;;;19.47;5.00;;;;;;;26.61;28.51;102512.69;10490587;28;20064;-81
2022/05/08 12:04:55;;;;;;;13.57;4.68;;;;;;;26.72;28.37;102506.47;10478062;28;20094;-78
2022/05/08 12:09:56;;;;;;;15.65;4.28;;;;;;;27.37;30.11;102502.34;10484179;28;20090;-78
2022/05/08 12:15:11;;;;;;;7.32;3.70;;;;;;;27.33;28.28;102497.88;10438056;28;20051;-79
2022/05/08 12:20:17;;;;;;;8.50;3.78;;;;;;;26.80;27.34;102485.94;10454655;28;20178;-80
2022/05/08 12:25:17;;;;;;;11.70;4.47;;;;;;;26.60;28.82;102478.66;10454269;28;20095;-80
2022/05/08 12:30:18;;;;;;;10.23;4.60;;;;;;;26.86;27.77;102480.63;10437587;28;20060;-80
2022/05/08 12:35:19;;;;;;;12.07;3.83;;;;;;;27.20;28.13;102471.84;10403079;28;20025;-81
2022/05/08 12:40:20;;;;;;;7.25;3.72;;;;;;;27.40;27.79;102469.19;10436670;28;20025;-81
2022/05/08 12:45:20;;;;;;;19.70;5.90;;;;;;;27.22;27.07;102476.31;10437192;28;20057;-80
2022/05/08 12:50:21;;;;;;;13.00;4.13;;;;;;;26.84;27.82;102471.69;10409428;28;20028;-81
2022/05/08 12:55:21;;;;;;;11.87;4.53;;;;;;;26.23;29.26;102478.41;10412954;28;20037;-81
2022/05/08 13:00:22;;;;;;;10.63;4.20;;;;;;;25.45;28.88;102469.63;10379678;28;20103;-80
2022/05/08 13:05:22;;;;;;;7.37;3.27;;;;;;;25.73;29.28;102472.59;10413345;28;20033;-80
2022/05/08 13:10:23;;;;;;;7.07;2.97;;;;;;;25.57;28.90;102476.00;10396607;28;20052;-80
2022/05/08 13:15:24;;;;;;;7.38;3.20;;;;;;;25.99;29.00;102460.31;10378742;28;20065;-80
2022/05/08 13:20:32;;;;;;;6.30;2.90;;;;;;;26.80;26.98;102462.69;10414094;28;20060;-80
2022/05/08 13:25:33;;;;;;;6.05;2.80;;;;;;;26.65;27.80;102451.88;10413066;28;20069;-81
2022/05/08 13:30:33;;;;;;;6.03;2.67;;;;;;;26.61;27.46;102448.25;10411865;28;20689;-80
2022/05/08 13:35:34;;;;;;;9.43;3.10;;;;;;;26.58;28.56;102447.34;10394905;28;20026;-81
2022/05/08 13:40:34;;;;;;;8.00;2.97;;;;;;;26.47;26.86;102439.22;10412562;28;20493;-80
2022/05/08 13:45:35;;;;;;;7.33;2.70;;;;;;;26.33;26.96;102428.41;10394655;28;20060;-81
2022/05/08 13:50:36;;;;;;;5.37;3.07;;;;;;;26.63;27.41;102435.72;10412119;28;20053;-80
2022/05/08 13:55:44;;;;;;;7.10;3.37;;;;;;;26.72;27.79;102429.53;10397460;28;20136;-81
2022/05/08 14:00:45;;;;;;;6.28;2.30;;;;;;;26.21;27.61;102422.06;10402761;28;20473;-81
2022/05/08 14:05:47;;;;;;;7.15;2.60;;;;;;;26.81;27.82;102425.97;10385596;28;20125;-81
2022/05/08 14:10:47;;;;;;;;;;;;;;;26.45;27.13;102417.75;10399730;28;20053;-80
2022/05/08 14:15:48;;;;;;;5.40;1.98;;;;;;;26.47;27.30;102421.34;10432923;28;20284;-83
2022/05/08 14:20:49;;;;;;;9.03;4.13;;;;;;;25.71;27.18;102420.75;10427404;28;20032;-80
2022/05/08 14:25:49;;;;;;;12.03;3.57;;;;;;;25.94;27.67;102412.00;10423592;28;20021;-79
2022/05/08 14:36:09;;;;;;;9.02;2.42;;;;;;;25.38;30.16;102405.22;10441243;28;20033;-81
2022/05/08 14:41:09;;;;;;;6.17;2.40;;;;;;;25.61;28.22;102397.41;10404795;28;20036;-79
2022/05/08 14:46:09;;;;;;;5.70;2.43;;;;;;;24.78;26.80;102408.97;10446016;28;20075;-80
2022/05/08 14:51:10;;;;;;;5.33;2.13;;;;;;;24.73;27.11;102397.31;10479787;28;20063;-81
2022/05/08 14:56:13;;;;;;;5.67;2.30;;;;;;;24.43;30.02;102399.59;10482494;28;20051;-81
2022/05/08 15:01:13;;;;;;;7.07;2.58;;;;;;;24.02;29.43;102399.84;10482345;28;20036;-81
2022/05/08 15:06:14;;;;;;;6.37;2.43;;;;;;;23.43;30.64;102394.34;10500606;28;20537;-81
2022/05/08 15:11:18;;;;;;;8.60;3.40;;;;;;;22.77;31.24;102391.25;10499252;28;20064;-81
2022/05/08 15:16:18;;;;;;;8.27;2.20;;;;;;;22.54;31.55;102394.31;10482187;28;20044;-81
2022/05/08 15:21:19;;;;;;;6.03;2.97;;;;;;;21.27;33.59;102386.72;10481969;28;20524;-81
2022/05/08 15:26:19;;;;;;;6.53;2.60;;;;;;;20.19;35.10;102391.47;10464698;28;20035;-80
2022/05/08 15:31:20;;;;;;;6.93;1.70;;;;;;;19.45;34.82;102389.84;10480669;28;20103;-81
2022/05/08 15:36:20;;;;;;;4.30;1.58;;;;;;;19.12;34.64;102388.72;10480317;28;20791;-81
2022/05/08 15:41:21;;;;;;;7.95;2.55;;;;;;;18.82;38.21;102377.81;10464992;28;20068;-80
2022/05/08 15:46:22;;;;;;;9.52;2.13;;;;;;;18.61;37.42;102384.13;10498170;28;20422;-81
2022/05/08 15:51:23;;;;;;;7.28;2.72;;;;;;;18.51;39.12;102380.22;10497980;28;20024;-81
2022/05/08 15:56:24;;;;;;;4.55;2.10;;;;;;;18.39;38.51;102375.31;10480998;28;20039;-81
2022/05/08 16:01:28;;;;;;;3.80;2.28;;;;;;;18.33;38.92;102369.78;10463390;28;20056;-81
2022/05/08 16:06:28;;;;;;;5.40;3.05;;;;;;;18.19;38.41;102363.94;10479741;28;20024;-81
2022/05/08 16:11:29;;;;;;;6.47;2.03;;;;;;;18.09;38.57;102365.31;10497043;28;20041;-81
2022/05/08 16:27:07;;;;;;;7.95;2.50;;;;;;;17.86;38.41;102367.88;10481903;28;20396;-81
2022/05/08 16:32:08;;;;;;;8.40;4.53;;;;;;;17.66;39.16;102366.13;10497244;28;20059;-80
2022/05/08 16:37:08;;;;;;;6.00;2.20;;;;;;;17.79;39.55;102364.94;10496592;28;20459;-81
2022/05/08 16:42:09;;;;;;;3.15;1.67;;;;;;;17.61;40.06;102364.19;10496004;28;20025;-80
2022/05/08 16:47:10;;;;;;;4.50;1.77;;;;;;;17.53;40.72;102362.97;10495808;28;20056;-80
2022/05/08 16:52:10;;;;;;;5.72;1.73;;;;;;;17.28;39.08;102364.56;10496713;28;20043;-81
2022/05/08 16:57:11;;;;;;;7.63;1.55;;;;;;;17.07;40.70;102367.16;10495610;28;20488;-80
2022/05/08 17:02:14;;;;;;;3.80;1.95;;;;;;;16.86;41.61;102362.69;10477333;28;20546;-80
2022/05/08 17:07:16;;;;;;;13.30;1.83;;;;;;;16.90;40.57;102353.13;10461810;28;20541;-80
2022/05/08 17:12:16;;;;;;;6.07;2.08;;;;;;;16.93;40.96;102358.56;10494825;28;20072;-80
2022/05/08 17:17:19;;;;;;;3.70;1.33;;;;;;;16.87;41.71;102363.56;10417284;28;20128;-79
2022/05/08 17:22:19;;;;;;;;;;;;;;;16.65;42.18;102364.34;10440242;28;20062;-79
2022/05/08 17:32:39;;;;;;;6.22;2.00;;;;;;;16.31;42.53;102363.63;10459558;28;20283;-79
2022/05/08 17:37:42;;;;;;;6.53;1.90;;;;;;;16.24;43.10;102369.47;10461338;28;20033;-78
2022/05/08 17:42:43;;;;;;;3.30;1.48;;;;;;;16.15;42.55;102365.53;10427630;28;20041;-78
2022/05/08 17:47:43;;;;;;;5.30;1.70;;;;;;;15.99;43.15;102365.63;10444374;28;20112;-78
2022/05/08 17:52:44;;;;;;;5.45;1.95;;;;;;;15.71;43.49;102372.13;10461309;28;20059;-79
2022/05/08 17:57:44;;;;;;;6.18;1.55;;;;;;;15.37;45.08;102375.69;10442555;28;20500;-79
2022/05/08 18:08:04;;;;;;;7.75;1.90;;;;;;;15.03;44.83;102374.81;10445779;28;20112;-79
2022/05/08 18:13:05;;;;;;;5.63;1.58;;;;;;;14.88;45.57;102382.78;10458917;28;20405;-79
2022/05/08 18:18:05;;;;;;;10.63;1.80;;;;;;;14.54;47.37;102381.84;10456724;28;20044;-81
2022/05/08 18:23:06;;;;;;;2.35;1.35;;;;;;;14.40;47.09;102388.06;10400268;28;20033;-81
2022/05/08 18:28:07;;;;;;;4.60;1.50;;;;;;;14.53;47.16;102384.38;10459413;28;20060;-81
2022/05/08 18:33:07;;;;;;;6.15;1.75;;;;;;;14.37;47.64;102394.03;10418442;28;20055;-81
2022/05/08 18:38:08;;;;;;;3.13;1.88;;;;;;;14.18;48.89;102396.44;10441762;28;20075;-81
2022/05/08 18:43:08;;;;;;;14.88;1.95;;;;;;;13.86;49.80;102395.47;10438689;28;20033;-81
2022/05/08 18:48:11;;;;;;;2.83;1.67;;;;;;;13.57;50.43;102403.47;10440004;28;20549;-81
2022/05/08 18:53:11;;;;;;;7.38;1.90;;;;;;;13.25;51.51;102414.63;10426542;28;20240;-81
2022/05/08 18:58:12;;;;;;;5.50;1.58;;;;;;;12.83;52.01;102412.06;10441112;28;20073;-80
2022/05/08 19:03:12;;;;;;;7.90;3.45;;;;;;;12.30;53.86;102407.00;10439371;28;20503;-81
2022/05/08 19:08:13;;;;;;;4.28;1.42;;;;;;;11.78;54.76;102414.00;10440017;28;20061;-81
2022/05/08 19:13:13;;;;;;;3.83;1.45;;;;;;;11.30;57.16;102411.66;10422314;28;20179;-80
2022/05/08 19:18:14;;;;;;;7.28;2.95;;;;;;;11.05;59.06;102422.13;10440093;28;20079;-80
2022/05/08 19:23:14;;;;;;;5.05;1.90;;;;;;;10.85;60.08;102426.88;10454995;28;20118;-80
2022/05/08 19:28:15;;;;;;;2.13;1.20;;;;;;;10.52;60.84;102431.50;10456517;28;20064;-80
2022/05/08 19:38:34;;;;;;;3.58;1.35;;;;;;;10.16;65.35;102447.16;10456637;28;20409;-80
2022/05/08 19:43:35;;;;;;;5.47;1.98;;;;;;;9.81;65.05;102461.09;10437952;28;20060;-80
2022/05/08 19:48:36;;;;;;;5.15;2.15;;;;;;;9.46;65.77;102461.91;10439473;28;20098;-79
2022/05/08 19:53:37;;;;;;;4.97;1.77;;;;;;;9.18;66.57;102463.28;10454204;28;20078;-80
2022/05/08 19:58:37;;;;;;;6.35;2.20;;;;;;;8.96;67.55;102482.47;10455774;28;20368;-80
2022/05/08 20:03:38;;;;;;;6.45;1.60;;;;;;;8.79;68.37;102481.09;10437322;28;20507;-80
2022/05/08 20:08:38;;;;;;;4.25;1.60;;;;;;;8.68;69.37;102481.94;10422023;28;20087;-80
2022/05/08 20:13:39;;;;;;;3.60;1.85;;;;;;;8.55;69.60;102489.53;10453809;28;20052;-80
2022/05/08 20:18:41;;;;;;;3.95;2.03;;;;;;;8.40;70.45;102489.19;10421304;28;20052;-80
2022/05/08 20:23:41;;;;;;;6.27;2.50;;;;;;;8.33;71.42;102487.75;10436398;28;20036;-79
2022/05/08 20:28:41;;;;;;;6.80;2.40;;;;;;;8.29;72.81;102496.09;10433413;28;20495;-79
2022/05/08 20:33:43;;;;;;;12.02;2.55;;;;;;;8.20;73.54;102494.56;10435343;28;20111;-79
2022/05/08 20:38:43;;;;;;;10.63;4.00;;;;;;;8.10;74.17;102497.19;10420070;28;20878;-80
2022/05/08 20:43:44;;;;;;;5.30;3.33;;;;;;;8.06;74.44;102497.69;10453227;28;20118;-80
2022/05/08 20:48:44;;;;;;;8.63;3.03;;;;;;;7.97;75.33;102502.13;10452671;28;20136;-80
2022/05/08 20:53:45;;;;;;;8.90;3.10;;;;;;;7.83;75.63;102499.28;10448999;28;20052;-80
2022/05/08 20:58:46;;;;;;;4.35;2.53;;;;;;;7.73;75.77;102501.88;10437162;28;20025;-80
2022/05/08 21:03:47;;;;;;;4.97;2.70;;;;;;;7.59;75.90;102506.81;10449921;28;20519;-80
2022/05/08 21:08:48;;;;;;;4.57;2.60;;;;;;;7.54;77.20;102507.22;10434424;28;20033;-80
2022/05/08 21:13:48;;;;;;;5.72;2.67;;;;;;;7.49;78.01;102504.19;10451713;28;20044;-80
2022/05/08 21:18:49;;;;;;;5.78;3.85;;;;;;;7.36;77.30;102510.06;10434937;28;20048;-80
2022/05/08 21:23:49;;;;;;;10.73;2.95;;;;;;;7.31;78.28;102512.25;10435355;28;20060;-81
2022/05/08 21:28:50;;;;;;;7.40;3.90;;;;;;;7.31;78.62;102507.03;10453828;28;20028;-80
2022/05/08 21:33:50;;;;;;;14.80;4.97;;;;;;;7.31;78.58;102507.03;10436252;28;20037;-80
2022/05/08 21:38:51;;;;;;;7.80;3.47;;;;;;;7.23;77.95;102513.28;10419469;28;20039;-80
2022/05/08 21:43:51;;;;;;;6.55;3.08;;;;;;;7.21;78.51;102517.44;10433144;28;20083;-80
2022/05/08 21:48:52;;;;;;;6.40;3.22;;;;;;;7.14;79.95;102518.59;10445400;28;20056;-79
2022/05/08 21:53:52;;;;;;;4.95;3.90;;;;;;;7.08;80.87;102512.84;10451337;28;20065;-80
2022/05/08 21:58:53;;;;;;;8.07;4.38;;;;;;;7.06;80.97;102514.41;10415730;28;20530;-78
2022/05/08 22:03:53;;;;;;;5.35;3.83;;;;;;;6.96;80.54;102512.66;10416708;28;20056;-78
2022/05/08 22:08:54;;;;;;;6.35;3.55;;;;;;;6.84;81.12;102517.69;10422567;28;20098;-78
2022/05/08 22:13:54;;;;;;;8.70;4.45;;;;;;;6.73;81.11;102518.44;10447919;28;20048;-78
2022/05/08 22:24:14;;;;;;;7.93;4.63;;;;;;;6.54;81.84;102521.03;10457396;28;20072;-78
2022/05/08 22:29:15;;;;;;;9.00;4.88;;;;;;;6.59;81.48;102525.91;10432735;28;20048;-78
2022/05/08 22:34:16;;;;;;;13.48;5.68;;;;;;;6.60;81.91;102524.19;10423561;28;20056;-78
2022/05/08 22:39:16;;;;;;;8.63;5.10;;;;;;;6.65;82.21;102527.25;10434619;28;20132;-78
2022/05/08 22:44:17;;;;;;;9.90;6.18;;;;;;;6.58;82.39;102521.47;10424289;28;20123;-78
2022/05/08 22:49:17;;;;;;;18.60;6.95;;;;;;;6.61;82.56;102519.16;10439340;28;20068;-77
2022/05/08 22:54:18;;;;;;;7.10;4.93;;;;;;;6.65;82.90;102517.72;10439095;28;20060;-78
2022/05/08 22:59:19;;;;;;;9.68;5.15;;;;;;;6.61;82.71;102520.81;10439438;28;20374;-78
2022/05/08 23:04:19;;;;;;;10.20;5.72;;;;;;;6.57;81.65;102517.06;10439425;28;20078;-78
2022/05/08 23:09:20;;;;;;;10.73;5.10;;;;;;;6.50;81.88;102517.28;10456776;28;20488;-78
2022/05/08 23:20:06;;;;;;;8.73;5.68;;;;;;;6.28;81.07;102535.19;10443299;28;20045;-77
2022/05/08 23:25:07;;;;;;;11.80;4.85;;;;;;;6.28;81.90;102528.31;10423954;28;20495;-78
2022/05/08 23:30:08;;;;;;;10.33;4.67;;;;;;;6.28;81.54;102522.19;10441216;28;20067;-77
2022/05/08 23:35:09;;;;;;;9.55;5.85;;;;;;;6.23;81.50;102526.97;10398245;28;20060;-78
2022/05/08 23:40:11;;;;;;;9.48;5.35;;;;;;;6.20;81.05;102529.31;10428177;28;20059;-78
2022/05/08 23:45:14;;;;;;;18.40;6.57;;;;;;;6.23;80.65;102518.25;10422600;28;20028;-78
2022/05/08 23:50:17;;;;;;;9.90;5.07;;;;;;;6.27;80.42;102515.16;10434732;28;20033;-78
2022/05/08 23:55:20;;;;;;;9.88;7.03;;;;;;;6.28;81.61;102511.78;10439795;28;20036;-78
